createdAt,value
2023-02-27T00:00:07.218Z,22.90
2023-02-27T00:02:36.041Z,20.50
2023-02-27T00:05:06.617Z,29.70
2023-02-27T00:07:34.702Z,27.90
2023-02-27T00:10:05.126Z,15.60
2023-02-27T00:12:38.112Z,11.70
2023-02-27T00:15:16.468Z,11.10
2023-02-27T00:17:47.326Z,11.90
2023-02-27T00:20:16.641Z,9.00
2023-02-27T00:22:46.357Z,8.60
2023-02-27T00:25:14.551Z,8.00
2023-02-27T00:27:43.080Z,8.90
2023-02-27T00:30:13.045Z,8.10
2023-02-27T00:32:45.318Z,9.80
2023-02-27T00:35:13.671Z,11.20
2023-02-27T00:37:42.142Z,10.70
2023-02-27T00:40:11.606Z,10.30
2023-02-27T00:42:39.895Z,13.00
2023-02-27T00:45:09.364Z,8.30
2023-02-27T00:47:38.274Z,8.90
2023-02-27T00:50:06.638Z,7.20
2023-02-27T00:52:34.923Z,6.70
2023-02-27T00:55:03.041Z,7.60
2023-02-27T00:57:32.115Z,10.00
2023-02-27T01:00:00.595Z,8.90
2023-02-27T01:02:32.255Z,7.00
2023-02-27T01:05:00.585Z,7.90
2023-02-27T01:07:29.600Z,6.70
2023-02-27T01:09:57.769Z,9.70
2023-02-27T01:12:25.877Z,9.10
2023-02-27T01:14:54.326Z,10.20
2023-02-27T01:17:22.400Z,13.60
2023-02-27T01:19:51.603Z,8.60
2023-02-27T01:22:19.981Z,9.10
2023-02-27T01:24:48.803Z,10.00
2023-02-27T01:27:17.205Z,8.20
2023-02-27T01:29:45.331Z,8.10
2023-02-27T01:32:13.542Z,7.90
2023-02-27T01:34:41.801Z,8.40
2023-02-27T01:37:10.019Z,8.20
2023-02-27T01:39:38.799Z,7.90
2023-02-27T01:42:26.505Z,6.30
2023-02-27T01:45:02.625Z,8.30
2023-02-27T01:47:32.784Z,6.90
2023-02-27T01:50:00.831Z,7.40
2023-02-27T01:52:29.046Z,8.90
2023-02-27T01:54:57.316Z,7.00
2023-02-27T01:57:26.743Z,7.60
2023-02-27T01:59:55.003Z,8.10
2023-02-27T02:02:31.157Z,7.80
2023-02-27T02:04:59.444Z,10.30
2023-02-27T02:07:27.508Z,9.00
2023-02-27T02:09:57.325Z,7.30
2023-02-27T02:12:29.104Z,8.50
2023-02-27T02:14:58.730Z,8.10
2023-02-27T02:18:00.900Z,9.50
2023-02-27T02:20:50.794Z,9.90
2023-02-27T02:23:30.913Z,9.80
2023-02-27T02:26:33.239Z,8.70
2023-02-27T02:29:37.240Z,10.00
2023-02-27T02:32:35.575Z,8.30
2023-02-27T02:35:45.879Z,8.20
2023-02-27T02:39:01.018Z,8.70
2023-02-27T02:41:42.826Z,9.70
2023-02-27T02:44:24.537Z,8.60
2023-02-27T02:47:06.443Z,9.70
2023-02-27T02:49:56.993Z,11.00
2023-02-27T02:52:31.465Z,12.40
2023-02-27T02:55:02.431Z,9.70
2023-02-27T02:57:33.866Z,7.50
2023-02-27T03:00:07.254Z,9.80
2023-02-27T03:02:44.909Z,8.70
2023-02-27T03:05:26.658Z,8.70
2023-02-27T03:08:13.994Z,10.20
2023-02-27T03:11:00.152Z,9.40
2023-02-27T03:13:43.839Z,11.10
2023-02-27T03:16:26.670Z,10.00
2023-02-27T03:19:23.234Z,9.50
2023-02-27T03:22:15.806Z,9.90
2023-02-27T03:24:50.509Z,13.80
2023-02-27T03:27:28.257Z,16.10
2023-02-27T03:30:06.421Z,11.60
2023-02-27T03:32:46.887Z,10.10
2023-02-27T03:35:15.464Z,8.20
2023-02-27T03:37:52.905Z,10.20
2023-02-27T03:40:31.277Z,8.30
2023-02-27T03:43:33.564Z,8.60
2023-02-27T03:46:14.964Z,13.40
2023-02-27T03:48:44.806Z,11.30
2023-02-27T03:51:15.012Z,10.70
2023-02-27T03:54:09.782Z,11.90
2023-02-27T03:56:44.629Z,10.60
2023-02-27T03:59:17.533Z,6.90
2023-02-27T04:01:49.048Z,9.00
2023-02-27T04:04:17.407Z,12.60
2023-02-27T04:07:25.874Z,11.60
2023-02-27T04:10:10.413Z,9.40
2023-02-27T04:12:50.931Z,9.00
2023-02-27T04:15:38.296Z,10.50
2023-02-27T04:18:34.957Z,13.50
2023-02-27T04:21:27.990Z,9.80
2023-02-27T04:26:52.922Z,16.50
2023-02-27T04:29:53.460Z,23.60
2023-02-27T04:32:54.817Z,13.80
2023-02-27T04:35:33.485Z,11.70
2023-02-27T04:38:11.035Z,12.20
2023-02-27T04:40:47.913Z,9.70
2023-02-27T04:45:44.886Z,9.10
2023-02-27T04:48:21.405Z,18.50
2023-02-27T04:51:14.709Z,25.70
2023-02-27T04:53:53.704Z,20.00
2023-02-27T04:56:28.811Z,15.00
2023-02-27T04:58:59.892Z,7.10
2023-02-27T05:01:52.341Z,9.40
2023-02-27T05:04:21.281Z,9.40
2023-02-27T05:06:49.371Z,15.80
2023-02-27T05:09:22.584Z,11.70
2023-02-27T05:11:55.351Z,10.80
2023-02-27T05:14:31.476Z,7.70
2023-02-27T05:17:02.535Z,11.00
2023-02-27T05:19:32.479Z,10.70
2023-02-27T05:22:23.838Z,12.50
2023-02-27T05:25:09.882Z,23.60
2023-02-27T05:27:44.260Z,25.20
2023-02-27T05:30:24.281Z,16.40
2023-02-27T05:32:57.246Z,13.20
2023-02-27T05:35:47.976Z,9.20
2023-02-27T05:38:21.144Z,7.50
2023-02-27T05:40:55.152Z,7.90
2023-02-27T05:43:26.695Z,12.80
2023-02-27T05:45:58.299Z,13.30
2023-02-27T05:48:50.826Z,15.40
2023-02-27T05:51:18.847Z,10.50
2023-02-27T05:53:53.384Z,7.90
2023-02-27T05:56:21.872Z,6.10
2023-02-27T05:58:54.510Z,6.40
2023-02-27T06:01:22.773Z,8.90
2023-02-27T06:03:50.893Z,7.40
2023-02-27T06:06:19.848Z,12.00
2023-02-27T06:08:47.956Z,13.90
2023-02-27T06:11:18.080Z,11.90
2023-02-27T06:13:46.903Z,16.00
2023-02-27T06:16:15.083Z,12.40
2023-02-27T06:18:44.628Z,11.70
2023-02-27T06:21:13.367Z,6.90
2023-02-27T06:23:41.750Z,6.80
2023-02-27T06:26:13.742Z,6.00
2023-02-27T06:28:42.577Z,9.90
2023-02-27T06:31:10.893Z,10.20
2023-02-27T06:33:39.036Z,6.90
2023-02-27T06:36:08.989Z,9.80
2023-02-27T06:38:38.169Z,21.60
2023-02-27T06:41:06.160Z,25.10
2023-02-27T06:43:36.794Z,26.00
2023-02-27T06:46:09.250Z,26.80
2023-02-27T06:48:38.219Z,33.00
2023-02-27T06:51:07.229Z,25.80
2023-02-27T06:53:36.425Z,34.50
2023-02-27T06:56:05.061Z,27.40
2023-02-27T06:58:33.126Z,21.50
2023-02-27T07:01:01.194Z,113.10
2023-02-27T07:03:29.464Z,89.90
2023-02-27T07:05:59.239Z,53.80
2023-02-27T07:08:28.201Z,30.60
2023-02-27T07:10:56.507Z,40.60
2023-02-27T07:13:24.493Z,24.80
2023-02-27T07:15:52.822Z,24.60
2023-02-27T07:18:20.925Z,17.30
2023-02-27T07:20:51.560Z,17.40
2023-02-27T07:23:23.788Z,27.50
2023-02-27T07:25:53.924Z,55.30
2023-02-27T07:28:22.552Z,42.90
2023-02-27T07:30:54.434Z,23.90
2023-02-27T07:33:22.683Z,17.60
2023-02-27T07:35:50.727Z,13.20
2023-02-27T07:38:19.400Z,13.70
2023-02-27T07:40:47.430Z,15.60
2023-02-27T07:43:16.138Z,18.00
2023-02-27T07:45:45.042Z,18.50
2023-02-27T07:48:13.302Z,15.20
2023-02-27T07:50:42.065Z,16.50
2023-02-27T07:53:10.302Z,14.60
2023-02-27T07:55:38.533Z,15.60
2023-02-27T07:58:08.608Z,12.00
2023-02-27T08:00:38.484Z,9.30
2023-02-27T08:03:06.509Z,10.50
2023-02-27T08:05:36.005Z,13.40
2023-02-27T08:08:04.218Z,12.10
2023-02-27T08:10:36.981Z,11.30
2023-02-27T08:13:06.622Z,16.20
2023-02-27T08:15:35.683Z,16.90
2023-02-27T08:18:04.011Z,15.00
2023-02-27T08:20:32.758Z,9.90
2023-02-27T08:23:00.697Z,12.60
2023-02-27T08:25:30.363Z,14.50
2023-02-27T08:27:58.460Z,13.80
2023-02-27T08:30:26.760Z,10.90
2023-02-27T08:32:55.867Z,22.00
2023-02-27T08:35:24.423Z,12.20
2023-02-27T08:37:52.734Z,11.60
2023-02-27T08:40:20.768Z,12.90
2023-02-27T08:42:51.817Z,10.20
2023-02-27T08:45:20.154Z,12.70
2023-02-27T08:47:48.574Z,13.00
2023-02-27T08:50:17.024Z,11.80
2023-02-27T08:52:46.455Z,11.20
2023-02-27T08:55:14.451Z,11.40
2023-02-27T08:57:43.268Z,17.20
2023-02-27T09:00:14.744Z,15.90
2023-02-27T09:02:43.611Z,12.90
2023-02-27T09:05:11.903Z,12.80
2023-02-27T09:07:42.615Z,10.30
2023-02-27T09:10:12.415Z,10.40
2023-02-27T09:12:44.050Z,12.20
2023-02-27T09:15:12.149Z,17.70
2023-02-27T09:17:41.867Z,14.90
2023-02-27T09:20:11.937Z,19.30
2023-02-27T09:22:41.600Z,16.00
2023-02-27T09:25:12.427Z,17.00
2023-02-27T09:27:41.325Z,22.50
2023-02-27T09:30:11.385Z,14.10
2023-02-27T09:32:40.063Z,13.50
2023-02-27T09:35:09.635Z,11.20
2023-02-27T09:37:37.886Z,14.80
2023-02-27T09:40:07.801Z,17.00
2023-02-27T09:42:42.262Z,21.60
2023-02-27T09:45:10.550Z,23.80
2023-02-27T09:47:44.660Z,32.50
2023-02-27T09:50:38.849Z,34.80
2023-02-27T09:53:31.464Z,29.50
2023-02-27T09:56:05.802Z,19.00
2023-02-27T09:58:46.030Z,22.00
2023-02-27T10:01:39.520Z,24.80
2023-02-27T10:04:18.578Z,23.10
2023-02-27T10:07:23.255Z,27.60
2023-02-27T10:10:00.726Z,16.60
2023-02-27T10:12:40.389Z,17.30
2023-02-27T10:15:29.663Z,12.70
2023-02-27T10:18:32.023Z,17.60
2023-02-27T10:21:03.370Z,21.60
2023-02-27T10:23:34.554Z,38.20
2023-02-27T10:26:02.815Z,25.80
2023-02-27T10:28:31.178Z,22.20
2023-02-27T10:31:02.344Z,14.40
2023-02-27T10:33:36.234Z,16.20
2023-02-27T10:36:17.911Z,19.70
2023-02-27T10:38:54.390Z,17.50
2023-02-27T10:41:22.517Z,10.50
2023-02-27T10:43:53.016Z,15.90
2023-02-27T10:46:26.957Z,11.90
2023-02-27T10:48:56.032Z,12.30
2023-02-27T10:51:25.888Z,23.90
2023-02-27T10:54:15.527Z,27.20
2023-02-27T10:57:21.227Z,23.70
2023-02-27T10:59:55.950Z,25.50
2023-02-27T11:02:40.716Z,27.60
2023-02-27T11:05:26.136Z,15.00
2023-02-27T11:08:12.048Z,12.90
2023-02-27T11:10:54.347Z,12.20
2023-02-27T11:16:16.170Z,13.30
2023-02-27T11:18:48.339Z,14.20
2023-02-27T11:21:30.183Z,12.50
2023-02-27T11:24:03.960Z,12.90
2023-02-27T11:26:35.443Z,18.80
2023-02-27T11:29:20.127Z,24.50
2023-02-27T11:31:53.632Z,12.30
2023-02-27T11:34:29.173Z,9.90
2023-02-27T11:37:07.672Z,11.30
2023-02-27T11:39:40.905Z,11.20
2023-02-27T11:42:42.140Z,19.30
2023-02-27T11:46:04.792Z,17.00
2023-02-27T11:48:09.494Z,13.50
2023-02-27T11:51:16.992Z,11.70
2023-02-27T11:53:52.772Z,14.90
2023-02-27T11:56:44.947Z,17.90
2023-02-27T11:59:22.262Z,21.30
2023-02-27T12:01:55.167Z,13.40
2023-02-27T12:04:38.311Z,11.20
2023-02-27T12:07:18.085Z,12.20
2023-02-27T12:09:51.705Z,11.70
2023-02-27T12:12:44.741Z,10.90
2023-02-27T12:15:12.952Z,13.40
2023-02-27T12:18:08.103Z,10.00
2023-02-27T12:20:59.283Z,13.20
2023-02-27T12:23:49.632Z,10.50
2023-02-27T12:26:37.682Z,11.30
2023-02-27T12:29:18.468Z,16.80
2023-02-27T12:31:54.394Z,14.00
2023-02-27T12:34:44.439Z,12.10
2023-02-27T12:37:13.849Z,17.90
2023-02-27T12:39:44.231Z,17.50
2023-02-27T12:42:27.729Z,18.80
2023-02-27T12:45:05.011Z,14.10
2023-02-27T12:47:46.373Z,14.80
2023-02-27T12:50:21.455Z,15.00
2023-02-27T12:52:56.275Z,16.40
2023-02-27T12:55:31.029Z,14.10
2023-02-27T12:58:21.232Z,14.10
2023-02-27T13:01:37.613Z,13.40
2023-02-27T13:04:11.674Z,12.10
2023-02-27T13:06:47.523Z,14.30
2023-02-27T13:09:18.474Z,13.70
2023-02-27T13:12:04.156Z,21.60
2023-02-27T13:14:38.744Z,19.10
2023-02-27T13:17:22.873Z,21.90
2023-02-27T13:19:53.895Z,16.20
2023-02-27T13:22:43.471Z,17.20
2023-02-27T13:25:15.603Z,13.60
2023-02-27T13:27:49.180Z,14.90
2023-02-27T13:30:35.804Z,11.10
2023-02-27T13:36:07.174Z,15.10
2023-02-27T13:38:44.837Z,28.60
2023-02-27T13:41:25.381Z,31.70
2023-02-27T13:44:01.526Z,21.30
2023-02-27T13:49:04.658Z,14.70
2023-02-27T13:51:35.810Z,49.00
2023-02-27T13:54:16.389Z,22.70
2023-02-27T13:57:03.530Z,29.60
2023-02-27T13:59:36.751Z,32.10
2023-02-27T14:02:11.698Z,26.80
2023-02-27T14:04:43.164Z,36.20
2023-02-27T14:07:15.314Z,34.40
2023-02-27T14:10:11.407Z,44.00
2023-02-27T14:12:45.891Z,76.40
2023-02-27T14:15:22.500Z,50.80
2023-02-27T14:18:09.663Z,39.90
2023-02-27T14:20:41.350Z,29.70
2023-02-27T14:23:17.078Z,30.20
2023-02-27T14:25:45.973Z,29.00
2023-02-27T14:28:35.339Z,29.10
2023-02-27T14:31:08.940Z,27.90
2023-02-27T14:33:46.871Z,22.80
2023-02-27T14:36:23.421Z,22.70
2023-02-27T14:38:54.615Z,25.30
2023-02-27T14:41:29.236Z,21.00
2023-02-27T14:43:57.935Z,23.80
2023-02-27T14:46:35.218Z,23.10
2023-02-27T14:49:08.553Z,19.00
2023-02-27T14:51:37.033Z,21.80
2023-02-27T14:54:15.612Z,17.60
2023-02-27T14:56:57.735Z,26.50
2023-02-27T14:59:30.886Z,21.10
2023-02-27T15:02:01.962Z,20.40
2023-02-27T15:04:31.699Z,18.30
2023-02-27T15:07:00.129Z,26.30
2023-02-27T15:09:43.190Z,32.00
2023-02-27T15:12:16.779Z,29.30
2023-02-27T15:14:48.069Z,22.00
2023-02-27T15:17:17.843Z,24.20
2023-02-27T15:19:57.193Z,21.50
2023-02-27T15:22:38.973Z,24.40
2023-02-27T15:25:36.787Z,23.90
2023-02-27T15:28:08.179Z,26.50
2023-02-27T15:30:36.808Z,29.20
2023-02-27T15:33:14.116Z,20.60
2023-02-27T15:35:43.594Z,18.80
2023-02-27T15:38:34.970Z,25.90
2023-02-27T15:41:03.362Z,31.40
2023-02-27T15:43:31.554Z,33.40
2023-02-27T15:46:00.519Z,26.10
2023-02-27T15:48:30.012Z,25.20
2023-02-27T15:50:59.192Z,20.20
2023-02-27T15:53:28.486Z,30.50
2023-02-27T15:55:58.658Z,40.60
2023-02-27T15:58:48.812Z,47.00
2023-02-27T16:01:19.696Z,40.30
2023-02-27T16:03:55.099Z,36.10
2023-02-27T16:06:31.332Z,49.20
2023-02-27T16:09:03.198Z,49.80
2023-02-27T16:11:34.813Z,55.40
2023-02-27T16:14:03.068Z,50.20
2023-02-27T16:16:38.820Z,55.90
2023-02-27T16:19:22.742Z,52.50
2023-02-27T16:22:18.470Z,64.00
2023-02-27T16:24:47.542Z,57.70
2023-02-27T16:27:29.153Z,52.10
2023-02-27T16:30:02.568Z,43.20
2023-02-27T16:32:36.316Z,43.30
2023-02-27T16:35:08.974Z,51.40
2023-02-27T16:37:38.957Z,89.10
2023-02-27T16:40:17.613Z,72.70
2023-02-27T16:42:46.128Z,49.80
2023-02-27T16:45:28.112Z,48.70
2023-02-27T16:47:58.262Z,47.00
2023-02-27T16:50:30.719Z,44.10
2023-02-27T16:52:59.772Z,39.20
2023-02-27T16:55:33.506Z,26.40
2023-02-27T16:58:02.652Z,23.70
2023-02-27T17:00:34.186Z,29.90
2023-02-27T17:03:02.626Z,31.10
2023-02-27T17:05:30.693Z,22.10
2023-02-27T17:08:01.672Z,18.60
2023-02-27T17:10:30.519Z,18.70
2023-02-27T17:12:59.083Z,22.10
2023-02-27T17:15:29.723Z,26.00
2023-02-27T17:17:57.802Z,21.00
2023-02-27T17:20:28.040Z,20.00
2023-02-27T17:22:58.973Z,22.10
2023-02-27T17:25:28.103Z,22.50
2023-02-27T17:27:56.208Z,26.30
2023-02-27T17:30:24.261Z,19.60
2023-02-27T17:32:52.602Z,19.80
2023-02-27T17:35:20.783Z,17.20
2023-02-27T17:37:48.830Z,21.40
2023-02-27T17:40:17.166Z,23.10
2023-02-27T17:42:47.012Z,26.20
2023-02-27T17:45:15.172Z,20.10
2023-02-27T17:47:43.974Z,26.30
2023-02-27T17:50:12.012Z,26.90
2023-02-27T17:52:41.055Z,26.70
2023-02-27T17:55:10.018Z,19.50
2023-02-27T17:57:40.267Z,18.40
2023-02-27T18:00:09.963Z,13.70
2023-02-27T18:02:40.498Z,15.90
2023-02-27T18:05:08.834Z,14.00
2023-02-27T18:07:36.966Z,13.60
2023-02-27T18:10:06.568Z,11.80
2023-02-27T18:12:35.382Z,14.30
2023-02-27T18:15:07.051Z,19.70
2023-02-27T18:17:36.563Z,18.30
2023-02-27T18:20:05.512Z,19.70
2023-02-27T18:22:34.423Z,19.60
2023-02-27T18:25:02.892Z,17.40
2023-02-27T18:27:31.372Z,23.20
2023-02-27T18:29:59.702Z,26.90
2023-02-27T18:32:27.816Z,28.70
2023-02-27T18:34:56.046Z,20.30
2023-02-27T18:37:24.041Z,16.10
2023-02-27T18:39:52.164Z,22.40
2023-02-27T18:42:23.848Z,25.90
2023-02-27T18:44:52.031Z,26.40
2023-02-27T18:47:20.122Z,19.40
2023-02-27T18:49:48.214Z,17.90
2023-02-27T18:52:16.349Z,21.20
2023-02-27T18:54:44.403Z,16.80
2023-02-27T18:57:13.005Z,21.70
2023-02-27T18:59:41.714Z,20.40
2023-02-27T19:02:13.729Z,21.30
2023-02-27T19:04:41.806Z,22.00
2023-02-27T19:07:09.806Z,29.20
2023-02-27T19:09:37.953Z,28.90
2023-02-27T19:12:06.162Z,29.50
2023-02-27T19:14:38.300Z,27.50
2023-02-27T19:17:09.234Z,44.30
2023-02-27T19:19:38.493Z,39.00
2023-02-27T19:22:06.935Z,27.90
2023-02-27T19:24:35.973Z,23.90
2023-02-27T19:27:04.151Z,22.70
2023-02-27T19:29:36.671Z,22.60
2023-02-27T19:32:08.380Z,26.50
2023-02-27T19:34:36.524Z,35.90
2023-02-27T19:37:04.785Z,28.10
2023-02-27T19:39:32.875Z,33.60
2023-02-27T19:42:01.156Z,24.70
2023-02-27T19:44:29.408Z,24.70
2023-02-27T19:46:57.504Z,27.70
2023-02-27T19:49:25.850Z,23.20
2023-02-27T19:51:55.820Z,20.90
2023-02-27T19:54:24.956Z,15.60
2023-02-27T19:56:54.421Z,16.80
2023-02-27T19:59:24.782Z,27.60
2023-02-27T20:01:52.871Z,30.70
2023-02-27T20:04:21.124Z,30.00
2023-02-27T20:06:53.097Z,29.30
2023-02-27T20:09:21.654Z,32.70
2023-02-27T20:11:52.667Z,29.20
2023-02-27T20:14:24.667Z,29.30
2023-02-27T20:16:54.393Z,23.00
2023-02-27T20:19:24.235Z,22.00
2023-02-27T20:21:52.555Z,17.20
2023-02-27T20:24:22.377Z,20.20
2023-02-27T20:26:55.100Z,24.50
2023-02-27T20:29:24.742Z,22.20
2023-02-27T20:31:53.528Z,25.90
2023-02-27T20:34:24.973Z,45.20
2023-02-27T20:36:54.512Z,30.30
2023-02-27T20:39:24.480Z,15.60
2023-02-27T20:41:52.782Z,11.60
2023-02-27T20:44:20.880Z,12.70
2023-02-27T20:46:49.610Z,15.70
2023-02-27T20:49:19.574Z,16.90
2023-02-27T20:51:47.649Z,19.00
2023-02-27T20:54:20.490Z,15.70
2023-02-27T20:56:54.572Z,17.70
2023-02-27T20:59:24.809Z,15.20
2023-02-27T21:01:53.414Z,17.00
2023-02-27T21:04:26.616Z,14.60
2023-02-27T21:06:57.832Z,12.10
2023-02-27T21:09:26.020Z,11.50
2023-02-27T21:11:54.249Z,10.90
2023-02-27T21:14:23.921Z,11.50
2023-02-27T21:16:52.170Z,9.60
2023-02-27T21:19:24.262Z,14.10
2023-02-27T21:21:52.343Z,12.20
2023-02-27T21:24:20.913Z,9.20
2023-02-27T21:26:49.670Z,11.60
2023-02-27T21:29:20.232Z,11.20
2023-02-27T21:31:49.224Z,13.10
2023-02-27T21:34:20.054Z,11.40
2023-02-27T21:36:54.187Z,11.60
2023-02-27T21:39:42.113Z,12.50
2023-02-27T21:42:10.343Z,12.40
2023-02-27T21:44:38.804Z,11.50
2023-02-27T21:47:10.313Z,11.50
2023-02-27T21:49:39.592Z,10.80
2023-02-27T21:52:08.063Z,10.40
2023-02-27T21:54:38.970Z,10.70
2023-02-27T21:57:07.031Z,12.40
2023-02-27T21:59:35.185Z,11.40
2023-02-27T22:02:03.372Z,13.30
2023-02-27T22:04:31.469Z,13.10
2023-02-27T22:06:59.849Z,12.50
2023-02-27T22:09:32.698Z,14.50
2023-02-27T22:12:03.805Z,13.00
2023-02-27T22:14:32.288Z,15.40
2023-02-27T22:17:06.108Z,15.80
2023-02-27T22:19:35.181Z,17.20
2023-02-27T22:22:03.159Z,14.60
2023-02-27T22:24:31.758Z,15.50
2023-02-27T22:27:00.327Z,14.20
2023-02-27T22:29:29.127Z,11.80
2023-02-27T22:31:57.416Z,14.60
2023-02-27T22:34:27.081Z,13.10
2023-02-27T22:36:56.357Z,12.90
2023-02-27T22:39:27.438Z,14.60
2023-02-27T22:41:56.892Z,13.20
2023-02-27T22:44:25.234Z,13.50
2023-02-27T22:46:54.749Z,28.70
2023-02-27T22:49:23.418Z,31.00
2023-02-27T22:51:52.376Z,38.10
2023-02-27T22:54:21.641Z,30.50
2023-02-27T22:56:51.139Z,34.80
2023-02-27T22:59:28.293Z,37.00
2023-02-27T23:01:56.364Z,33.20
2023-02-27T23:04:24.408Z,29.90
2023-02-27T23:06:53.018Z,30.30
2023-02-27T23:09:22.859Z,34.00
2023-02-27T23:11:54.733Z,33.20
2023-02-27T23:14:23.769Z,26.90
2023-02-27T23:16:51.866Z,25.60
2023-02-27T23:19:20.891Z,33.20
2023-02-27T23:21:54.724Z,24.10
2023-02-27T23:24:22.837Z,19.60
2023-02-27T23:26:52.720Z,19.70
2023-02-27T23:29:21.856Z,20.80
2023-02-27T23:31:50.636Z,19.00
2023-02-27T23:35:16.454Z,23.70
2023-02-27T23:37:44.619Z,21.70
2023-02-27T23:40:14.246Z,21.70
2023-02-27T23:43:01.187Z,21.90
2023-02-27T23:45:32.575Z,24.20
2023-02-27T23:48:01.625Z,21.70
2023-02-27T23:50:32.453Z,22.60
2023-02-27T23:53:00.526Z,33.80
2023-02-27T23:55:29.705Z,38.70
2023-02-27T23:57:58.677Z,35.50
